Time;durP1;ratioP1;P1;durP2;ratioP2;P2;SDS_P1;SDS_P2;PMS_P1;PMS_P2;Temp;Humidity;BMP_temperature;BMP_pressure;BME280_temperature;BME280_humidity;BME280_pressure;Samples;Min_cycle;Max_cycle;Signal;HPM_P1;HPM_P2
2023/05/14 00:02:38;;;;;;;15.13;9.50;;;12.30;99.90;;;;;;5010127;28;20203;-79
2023/05/14 00:05:25;;;;;;;15.57;9.30;;;12.20;99.90;;;;;;5010374;28;20207;-80
2023/05/14 00:08:12;;;;;;;15.93;9.17;;;12.20;99.90;;;;;;5010477;28;20239;-82
2023/05/14 00:11:02;;;;;;;13.60;8.87;;;12.20;99.90;;;;;;5011406;28;20203;-82
2023/05/14 00:13:52;;;;;;;14.23;9.10;;;12.20;99.90;;;;;;5010566;28;20200;-79
2023/05/14 00:16:41;;;;;;;15.93;8.93;;;12.10;99.90;;;;;;5010618;28;20359;-80
2023/05/14 00:19:28;;;;;;;17.63;9.77;;;12.10;99.90;;;;;;5010960;28;20200;-79
2023/05/14 00:22:15;;;;;;;17.43;9.37;;;12.00;99.90;;;;;;4998087;28;20573;-80
2023/05/14 00:25:03;;;;;;;13.63;9.00;;;11.90;99.90;;;;;;5012576;28;20200;-80
2023/05/14 00:27:52;;;;;;;16.53;8.90;;;11.90;99.90;;;;;;5014636;28;20207;-81
2023/05/14 00:30:40;;;;;;;15.17;9.13;;;11.90;99.90;;;;;;5015032;28;20632;-79
2023/05/14 00:33:27;;;;;;;15.13;8.83;;;11.80;99.90;;;;;;5014159;28;20208;-80
2023/05/14 00:36:14;;;;;;;14.63;9.10;;;11.80;99.90;;;;;;5015328;28;20216;-80
2023/05/14 00:39:04;;;;;;;15.40;9.13;;;11.80;99.90;;;;;;5013683;28;20746;-80
2023/05/14 00:41:51;;;;;;;13.17;8.83;;;11.80;99.90;;;;;;4999278;28;20403;-79
2023/05/14 00:44:38;;;;;;;13.53;8.77;;;11.70;99.90;;;;;;5013791;28;20692;-80
2023/05/14 00:47:26;;;;;;;13.63;9.07;;;11.70;99.90;;;;;;5016703;28;20196;-79
2023/05/14 00:50:15;;;;;;;14.53;9.37;;;11.60;99.90;;;;;;5013753;28;20200;-81
2023/05/14 00:53:03;;;;;;;14.87;9.33;;;11.60;99.90;;;;;;5012701;28;20204;-81
2023/05/14 00:55:51;;;;;;;17.10;8.77;;;11.60;99.90;;;;;;5013625;28;20342;-78
2023/05/14 00:58:39;;;;;;;14.90;9.70;;;11.50;99.90;;;;;;5014154;28;20200;-82
2023/05/14 01:01:27;;;;;;;14.63;9.40;;;11.40;99.90;;;;;;5013810;28;20215;-80
2023/05/14 01:04:18;;;;;;;15.27;9.63;;;11.40;99.90;;;;;;5012197;28;20204;-81
2023/05/14 01:07:25;;;;;;;14.20;9.27;;;11.30;99.90;;;;;;5012970;28;20258;-79
2023/05/14 01:10:37;;;;;;;15.67;9.67;;;11.30;99.90;;;;;;4931365;29;20218;-79
2023/05/14 01:13:43;;;;;;;15.40;9.63;;;11.30;99.90;;;;;;4931886;29;20687;-81
2023/05/14 01:16:33;;;;;;;14.17;9.70;;;11.20;99.90;;;;;;4932654;29;20281;-81
2023/05/14 01:19:44;;;;;;;15.93;9.97;;;11.10;99.90;;;;;;4932638;29;20203;-79
2023/05/14 01:22:36;;;;;;;15.83;10.27;;;11.10;99.90;;;;;;4932517;29;20203;-81
2023/05/14 01:25:24;;;;;;;14.80;10.50;;;11.00;99.90;;;;;;4932149;29;20203;-80
2023/05/14 01:28:18;;;;;;;17.53;10.40;;;11.00;99.90;;;;;;4932414;29;20784;-78
2023/05/14 01:31:17;;;;;;;13.50;9.77;;;10.90;99.90;;;;;;4932599;29;20218;-82
2023/05/14 01:34:06;;;;;;;17.53;10.27;;;10.90;99.90;;;;;;4933855;29;20214;-81
2023/05/14 01:36:55;;;;;;;16.27;10.00;;;10.90;99.90;;;;;;4933657;28;20226;-81
2023/05/14 01:39:44;;;;;;;15.73;10.97;;;10.90;99.90;;;;;;4933917;29;20191;-82
2023/05/14 01:42:31;;;;;;;16.13;10.63;;;10.80;99.90;;;;;;4932461;29;20724;-82
2023/05/14 01:45:25;;;;;;;16.67;11.10;;;10.80;99.90;;;;;;4931387;29;20234;-81
2023/05/14 01:48:12;;;;;;;17.43;11.30;;;10.70;99.90;;;;;;4993034;28;20215;-81
2023/05/14 01:51:01;;;;;;;16.97;10.80;;;10.70;99.90;;;;;;5012231;28;20192;-83
2023/05/14 01:53:48;;;;;;;16.07;10.57;;;10.60;99.90;;;;;;5012470;28;20224;-81
2023/05/14 01:56:35;;;;;;;17.07;10.40;;;10.50;99.90;;;;;;5012760;28;20220;-83
2023/05/14 01:59:22;;;;;;;15.73;10.60;;;10.50;99.90;;;;;;5014120;28;20207;-83
2023/05/14 02:02:10;;;;;;;15.30;10.37;;;10.40;99.90;;;;;;5012969;28;20286;-78
2023/05/14 02:04:57;;;;;;;17.13;10.33;;;10.40;99.90;;;;;;5013561;28;20251;-84
2023/05/14 02:07:44;;;;;;;16.20;10.77;;;10.40;99.90;;;;;;5011612;28;20232;-81
2023/05/14 02:10:31;;;;;;;19.20;12.03;;;10.30;99.90;;;;;;5012557;28;20566;-80
2023/05/14 02:13:19;;;;;;;21.30;11.83;;;10.20;99.90;;;;;;5012921;28;20208;-81
2023/05/14 02:16:07;;;;;;;16.10;11.30;;;10.20;99.90;;;;;;5012443;28;20192;-79
2023/05/14 02:18:55;;;;;;;16.07;10.90;;;10.20;99.90;;;;;;5013136;28;20195;-78
2023/05/14 02:21:42;;;;;;;17.37;11.60;;;10.10;99.90;;;;;;5013258;28;20207;-83
2023/05/14 02:24:29;;;;;;;19.13;12.00;;;10.10;99.90;;;;;;5012133;28;20200;-82
2023/05/14 02:27:17;;;;;;;19.63;11.77;;;10.00;99.90;;;;;;5012134;28;20207;-84
2023/05/14 02:30:08;;;;;;;18.00;11.67;;;10.00;99.90;;;;;;5012895;28;20287;-84
2023/05/14 02:32:56;;;;;;;17.20;11.50;;;9.90;99.90;;;;;;5012724;28;20737;-84
2023/05/14 02:35:43;;;;;;;16.73;11.10;;;9.90;99.90;;;;;;5012187;28;20196;-85
2023/05/14 02:38:30;;;;;;;16.50;11.10;;;9.90;99.90;;;;;;4996529;28;20236;-82
2023/05/14 02:41:17;;;;;;;18.87;11.60;;;9.90;99.90;;;;;;5018008;28;20524;-81
2023/05/14 02:44:04;;;;;;;18.30;11.30;;;10.00;99.90;;;;;;5011452;28;20236;-81
2023/05/14 02:46:52;;;;;;;17.63;11.10;;;10.00;99.90;;;;;;5012160;28;20196;-82
2023/05/14 02:49:39;;;;;;;17.60;11.60;;;9.80;99.90;;;;;;5010609;28;20255;-80
2023/05/14 02:52:27;;;;;;;18.13;11.93;;;9.70;99.90;;;;;;5011517;28;20433;-83
2023/05/14 02:55:14;;;;;;;19.33;12.90;;;9.70;99.90;;;;;;5012329;28;20227;-76
2023/05/14 02:58:01;;;;;;;19.67;12.30;;;9.70;99.90;;;;;;5011672;28;20219;-81
2023/05/14 03:00:48;;;;;;;19.97;12.43;;;9.70;99.90;;;;;;5012712;28;20196;-82
2023/05/14 03:03:39;;;;;;;23.37;13.53;;;9.60;99.90;;;;;;5012855;28;20212;-81
2023/05/14 03:06:27;;;;;;;22.00;13.43;;;9.60;99.90;;;;;;5012865;28;20224;-79
2023/05/14 03:09:14;;;;;;;19.37;13.00;;;9.60;99.90;;;;;;5012879;28;20200;-80
2023/05/14 03:12:01;;;;;;;22.87;13.67;;;9.60;99.90;;;;;;5014653;28;20600;-78
2023/05/14 03:14:48;;;;;;;19.20;13.30;;;9.60;99.90;;;;;;5013359;28;20200;-80
2023/05/14 03:17:35;;;;;;;19.67;12.97;;;9.50;99.90;;;;;;5013607;28;20586;-80
2023/05/14 03:20:24;;;;;;;20.17;13.23;;;9.50;99.90;;;;;;5012373;28;20192;-80
2023/05/14 03:23:13;;;;;;;22.60;14.20;;;9.40;99.90;;;;;;4997511;28;20196;-78
2023/05/14 03:26:01;;;;;;;22.40;13.63;;;9.40;99.90;;;;;;5011743;28;20193;-81
2023/05/14 03:28:49;;;;;;;22.30;14.00;;;9.40;99.90;;;;;;5011899;28;20204;-77
2023/05/14 03:31:36;;;;;;;23.13;14.50;;;9.40;99.90;;;;;;5011915;28;20565;-82
2023/05/14 03:34:23;;;;;;;22.73;14.00;;;9.40;99.90;;;;;;4999825;28;20200;-78
2023/05/14 03:37:10;;;;;;;19.43;13.30;;;9.40;99.90;;;;;;5012126;28;20224;-79
2023/05/14 03:39:58;;;;;;;21.27;13.60;;;9.40;99.90;;;;;;5014329;28;20192;-81
2023/05/14 03:42:45;;;;;;;25.43;13.33;;;9.40;99.90;;;;;;5010604;28;20196;-78
2023/05/14 03:45:32;;;;;;;22.90;14.27;;;9.40;99.90;;;;;;5011246;28;20196;-82
2023/05/14 03:48:19;;;;;;;19.03;13.50;;;9.50;99.90;;;;;;5011487;28;20206;-82
2023/05/14 03:51:07;;;;;;;22.60;13.27;;;9.60;99.90;;;;;;5010850;28;20200;-83
2023/05/14 03:53:54;;;;;;;20.43;14.00;;;9.60;99.90;;;;;;4996115;28;20713;-78
2023/05/14 03:56:42;;;;;;;23.60;14.03;;;9.60;99.90;;;;;;5010043;28;20221;-79
2023/05/14 03:59:30;;;;;;;20.90;13.30;;;9.70;99.90;;;;;;5010127;28;20204;-81
2023/05/14 04:02:17;;;;;;;22.70;13.97;;;9.70;99.90;;;;;;5009291;28;20253;-82
2023/05/14 04:05:06;;;;;;;22.23;13.03;;;9.80;99.90;;;;;;4996600;28;20712;-78
2023/05/14 04:07:53;;;;;;;20.17;13.50;;;9.80;99.90;;;;;;5010316;28;20564;-80
2023/05/14 04:10:41;;;;;;;21.07;13.23;;;9.90;99.90;;;;;;5010831;28;20208;-80
2023/05/14 04:13:28;;;;;;;18.10;12.80;;;9.90;99.90;;;;;;5010917;28;20581;-80
2023/05/14 04:16:16;;;;;;;20.27;12.70;;;10.00;99.90;;;;;;5009744;28;20559;-80
2023/05/14 04:19:06;;;;;;;20.37;13.33;;;10.00;99.90;;;;;;5009927;28;20223;-79
2023/05/14 04:21:53;;;;;;;24.20;13.57;;;10.10;99.90;;;;;;5009480;28;20200;-81
2023/05/14 04:24:40;;;;;;;19.43;13.73;;;10.20;99.90;;;;;;5010396;28;20634;-80
2023/05/14 04:27:27;;;;;;;19.97;13.20;;;10.30;99.90;;;;;;5009999;28;20204;-81
2023/05/14 04:30:15;;;;;;;18.63;12.80;;;10.40;99.90;;;;;;5009048;28;20192;-81
2023/05/14 04:33:02;;;;;;;21.50;13.33;;;10.50;99.90;;;;;;5010647;28;20204;-82
2023/05/14 04:35:51;;;;;;;18.07;12.53;;;10.60;99.90;;;;;;5010121;28;20223;-81
2023/05/14 04:38:38;;;;;;;21.20;12.33;;;10.70;99.90;;;;;;5009948;28;20594;-83
2023/05/14 04:41:25;;;;;;;17.03;12.33;;;10.90;99.90;;;;;;5009939;28;20196;-81
2023/05/14 04:44:13;;;;;;;17.77;12.60;;;10.90;99.90;;;;;;5010247;28;20196;-81
2023/05/14 04:47:00;;;;;;;18.17;11.80;;;11.00;99.90;;;;;;5009761;28;20553;-82
2023/05/14 04:49:48;;;;;;;18.70;11.17;;;11.10;99.90;;;;;;5010285;28;20207;-79
2023/05/14 04:52:35;;;;;;;17.17;11.47;;;11.20;99.90;;;;;;5012425;28;20428;-76
2023/05/14 04:55:22;;;;;;;17.50;11.20;;;11.20;99.90;;;;;;5010070;28;20290;-80
2023/05/14 04:58:09;;;;;;;16.07;11.13;;;11.30;99.90;;;;;;5009210;28;20235;-77
2023/05/14 05:00:56;;;;;;;17.17;10.90;;;11.40;99.90;;;;;;5010370;28;20200;-80
2023/05/14 05:03:44;;;;;;;18.87;10.90;;;11.50;99.90;;;;;;5008781;28;20698;-80
2023/05/14 05:06:31;;;;;;;18.47;11.00;;;11.70;99.90;;;;;;5013736;28;20382;-83
2023/05/14 05:09:18;;;;;;;15.87;10.80;;;11.80;99.90;;;;;;5009705;28;20215;-81
2023/05/14 05:12:06;;;;;;;16.17;11.20;;;11.90;99.90;;;;;;5011948;28;20516;-83
2023/05/14 05:14:53;;;;;;;19.17;11.03;;;11.90;99.90;;;;;;5013948;28;20192;-83
2023/05/14 05:17:40;;;;;;;16.87;11.20;;;12.10;99.90;;;;;;5014073;28;20224;-83
2023/05/14 05:20:27;;;;;;;17.20;11.33;;;12.20;99.90;;;;;;5014160;28;20200;-81
2023/05/14 05:23:15;;;;;;;16.90;11.00;;;12.40;99.90;;;;;;5013376;28;20604;-82
2023/05/14 05:26:02;;;;;;;17.37;11.30;;;12.40;99.90;;;;;;5013439;28;20200;-78
2023/05/14 05:28:49;;;;;;;19.03;11.57;;;12.50;99.90;;;;;;5013409;28;20673;-78
2023/05/14 05:31:36;;;;;;;15.57;10.33;;;12.60;99.90;;;;;;5013912;28;20205;-82
2023/05/14 05:34:24;;;;;;;16.13;11.07;;;12.70;99.90;;;;;;5013197;28;20216;-81
2023/05/14 05:37:11;;;;;;;17.57;11.33;;;12.80;99.90;;;;;;5013233;28;20213;-83
2023/05/14 05:39:58;;;;;;;17.87;10.37;;;12.90;99.90;;;;;;5014671;28;20235;-83
2023/05/14 05:42:45;;;;;;;16.53;11.40;;;13.00;99.90;;;;;;5012860;28;20508;-82
2023/05/14 05:45:33;;;;;;;17.43;10.80;;;13.20;99.90;;;;;;5014143;28;20200;-82
2023/05/14 05:48:20;;;;;;;17.27;10.80;;;13.30;99.90;;;;;;5013268;28;20583;-82
2023/05/14 05:51:07;;;;;;;15.93;11.03;;;13.40;99.90;;;;;;5013914;28;20586;-82
2023/05/14 05:53:55;;;;;;;17.10;10.37;;;13.50;99.90;;;;;;5013073;28;20263;-82
2023/05/14 05:56:42;;;;;;;16.17;10.23;;;13.60;99.90;;;;;;5013290;28;20571;-83
2023/05/14 05:59:29;;;;;;;14.87;9.90;;;13.80;99.90;;;;;;5015031;28;20804;-77
2023/05/14 06:02:17;;;;;;;11.97;8.93;;;13.80;99.90;;;;;;5015763;28;20200;-78
2023/05/14 06:05:07;;;;;;;15.07;9.57;;;13.90;99.90;;;;;;5023405;28;20213;-83
2023/05/14 06:07:54;;;;;;;13.77;9.13;;;14.10;99.90;;;;;;4998372;28;20231;-83
2023/05/14 06:10:41;;;;;;;16.33;9.93;;;14.20;99.90;;;;;;5013153;28;20196;-83
2023/05/14 06:13:29;;;;;;;14.80;9.30;;;14.40;99.90;;;;;;5013312;28;20199;-80
2023/05/14 06:16:16;;;;;;;14.17;9.80;;;14.60;99.90;;;;;;5012934;28;20199;-83
2023/05/14 06:19:03;;;;;;;12.70;9.57;;;14.70;99.90;;;;;;5012656;28;20590;-80
2023/05/14 06:21:50;;;;;;;14.37;8.47;;;14.80;99.90;;;;;;5015956;28;20193;-84
2023/05/14 06:24:37;;;;;;;13.43;8.93;;;15.00;99.90;;;;;;5020890;28;20197;-83
2023/05/14 06:27:25;;;;;;;14.73;9.80;;;15.10;99.90;;;;;;5012949;28;20196;-85
2023/05/14 06:30:12;;;;;;;15.37;9.27;;;15.20;99.90;;;;;;5012575;28;20196;-82
2023/05/14 06:33:00;;;;;;;15.10;9.10;;;15.30;99.90;;;;;;5016811;28;20196;-79
2023/05/14 06:35:47;;;;;;;13.53;9.03;;;15.50;99.90;;;;;;5013581;28;20278;-84
2023/05/14 06:38:34;;;;;;;15.80;8.83;;;15.60;99.90;;;;;;5013712;28;20301;-82
2023/05/14 06:41:21;;;;;;;13.87;9.00;;;15.70;99.90;;;;;;5013565;28;20638;-84
2023/05/14 06:44:08;;;;;;;12.00;7.60;;;15.90;99.90;;;;;;5013720;28;20213;-85
2023/05/14 06:46:56;;;;;;;11.83;7.70;;;16.10;99.90;;;;;;5016112;28;20200;-86
2023/05/14 06:49:43;;;;;;;11.17;7.90;;;16.30;99.90;;;;;;5000801;28;20672;-84
2023/05/14 06:52:30;;;;;;;12.37;7.70;;;16.40;99.90;;;;;;5013390;28;20215;-83
2023/05/14 06:55:17;;;;;;;12.43;6.93;;;16.50;99.90;;;;;;5014064;28;20212;-80
2023/05/14 06:58:08;;;;;;;12.87;7.47;;;16.50;99.90;;;;;;5012755;28;20227;-82
2023/05/14 07:00:55;;;;;;;13.77;7.03;;;16.70;99.90;;;;;;5017091;28;20302;-78
2023/05/14 07:03:42;;;;;;;13.93;7.03;;;16.80;99.90;;;;;;5017093;28;20215;-83
2023/05/14 07:06:29;;;;;;;15.17;7.50;;;16.80;99.90;;;;;;5013830;28;20677;-79
2023/05/14 07:09:16;;;;;;;9.67;6.63;;;16.80;99.90;;;;;;5012384;28;20560;-83
2023/05/14 07:12:04;;;;;;;11.27;7.00;;;16.90;99.90;;;;;;5014731;28;20709;-84
2023/05/14 07:14:51;;;;;;;11.67;6.63;;;17.00;99.90;;;;;;5014381;28;20200;-84
2023/05/14 07:17:38;;;;;;;9.87;6.00;;;17.10;99.90;;;;;;5012713;28;20664;-79
2023/05/14 07:20:25;;;;;;;11.20;5.90;;;17.20;99.90;;;;;;5017209;28;20282;-83
2023/05/14 07:23:13;;;;;;;7.13;5.30;;;17.40;99.90;;;;;;5011604;28;20196;-83
2023/05/14 07:26:00;;;;;;;8.37;5.30;;;17.50;99.90;;;;;;5011589;28;20211;-83
2023/05/14 07:28:47;;;;;;;8.80;5.53;;;17.60;99.90;;;;;;5011978;28;20275;-87
2023/05/14 07:31:35;;;;;;;9.93;5.43;;;17.70;99.90;;;;;;5012519;28;20208;-85
2023/05/14 07:34:22;;;;;;;9.93;5.37;;;17.90;99.90;;;;;;5027748;28;20219;-87
2023/05/14 07:37:09;;;;;;;7.97;5.30;;;18.00;99.90;;;;;;5027224;28;20207;-77
2023/05/14 07:39:56;;;;;;;7.13;4.80;;;18.20;99.90;;;;;;5020152;28;20290;-81
2023/05/14 07:42:43;;;;;;;6.30;4.60;;;18.30;99.90;;;;;;5017957;28;20192;-88
2023/05/14 07:45:32;;;;;;;8.20;5.00;;;18.50;99.90;;;;;;4996409;28;20207;-85
2023/05/14 07:48:19;;;;;;;7.77;4.33;;;18.60;99.90;;;;;;5007307;28;20196;-84
2023/05/14 07:51:06;;;;;;;5.90;4.10;;;18.60;99.90;;;;;;5009560;28;20299;-82
2023/05/14 07:53:57;;;;;;;11.33;4.63;;;18.70;99.90;;;;;;5010579;28;20305;-80
2023/05/14 07:56:44;;;;;;;7.93;4.70;;;18.70;99.90;;;;;;5008977;28;20212;-82
2023/05/14 07:59:31;;;;;;;6.80;4.30;;;18.80;99.90;;;;;;5008245;28;20235;-77
2023/05/14 08:02:18;;;;;;;8.17;4.27;;;19.00;99.90;;;;;;5009036;28;20204;-84
2023/05/14 08:05:09;;;;;;;6.53;4.20;;;19.20;99.90;;;;;;5010712;28;20746;-80
2023/05/14 08:07:56;;;;;;;6.77;4.50;;;19.40;99.90;;;;;;5010254;28;20223;-83
2023/05/14 08:10:43;;;;;;;6.70;4.17;;;19.60;99.90;;;;;;5011075;28;20196;-75
2023/05/14 08:13:31;;;;;;;5.70;3.73;;;20.00;99.40;;;;;;5010079;28;20290;-78
2023/05/14 08:16:19;;;;;;;5.80;3.67;;;21.10;96.60;;;;;;5010264;28;20286;-75
2023/05/14 08:19:06;;;;;;;6.80;3.83;;;22.10;93.30;;;;;;5010312;28;20243;-76
2023/05/14 08:21:54;;;;;;;5.85;3.40;;;22.90;85.40;;;;;;4991004;28;20255;-76
2023/05/14 08:24:42;;;;;;;4.00;3.28;;;23.50;79.50;;;;;;4988850;28;20209;-79
2023/05/14 08:27:29;;;;;;;6.30;3.90;;;24.00;75.40;;;;;;4988440;28;20201;-77
2023/05/14 08:30:16;;;;;;;4.47;3.53;;;24.20;72.30;;;;;;4989099;28;20219;-78
2023/05/14 08:33:04;;;;;;;5.38;3.38;;;24.40;69.00;;;;;;4988872;28;20205;-78
2023/05/14 08:35:55;;;;;;;6.57;3.50;;;24.60;64.40;;;;;;4990271;28;20216;-76
2023/05/14 08:38:43;;;;;;;5.07;3.55;;;24.70;65.10;;;;;;4988854;28;20854;-78
2023/05/14 08:41:30;;;;;;;4.38;3.00;;;24.70;63.00;;;;;;4975658;28;20197;-78
2023/05/14 08:44:19;;;;;;;7.18;3.53;;;25.00;62.20;;;;;;4988614;28;20525;-71
2023/05/14 08:47:17;;;;;;;6.75;3.63;;;25.40;59.70;;;;;;4978072;28;20197;-74
2023/05/14 08:50:07;;;;;;;5.63;3.67;;;25.40;60.60;;;;;;4991561;28;20432;-75
2023/05/14 08:52:54;;;;;;;5.88;3.33;;;25.40;59.60;;;;;;4992897;28;20677;-73
2023/05/14 08:55:43;;;;;;;3.88;3.22;;;25.30;58.30;;;;;;4993212;28;20690;-70
2023/05/14 08:58:30;;;;;;;4.20;3.40;;;25.40;58.70;;;;;;4992975;28;20224;-76
2023/05/14 09:01:18;;;;;;;5.55;3.05;;;25.40;60.10;;;;;;4992843;28;20236;-72
2023/05/14 09:04:07;;;;;;;5.40;3.20;;;25.50;58.60;;;;;;4993411;28;20212;-78
2023/05/14 09:06:54;;;;;;;5.53;3.20;;;25.70;57.50;;;;;;4986201;28;20237;-72
2023/05/14 09:09:43;;;;;;;4.45;3.22;;;25.70;59.40;;;;;;4974132;28;20207;-81
2023/05/14 09:12:31;;;;;;;7.43;3.15;;;25.80;56.90;;;;;;4974284;28;20564;-77
2023/05/14 09:15:18;;;;;;;5.22;3.13;;;25.60;56.60;;;;;;4972523;28;20257;-78
2023/05/14 09:18:05;;;;;;;6.50;2.92;;;25.70;57.50;;;;;;4973886;28;20208;-73
2023/05/14 09:20:53;;;;;;;5.03;2.95;;;25.60;56.90;;;;;;4973908;28;20639;-77
2023/05/14 09:23:44;;;;;;;8.02;3.30;;;25.50;57.50;;;;;;4974270;28;20206;-76
2023/05/14 09:26:33;;;;;;;6.78;3.15;;;25.70;57.90;;;;;;4972740;28;20202;-75
2023/05/14 09:29:20;;;;;;;4.65;3.22;;;25.70;56.90;;;;;;4973392;28;20208;-74
2023/05/14 09:32:09;;;;;;;4.55;2.75;;;25.40;56.20;;;;;;4972974;28;20571;-75
2023/05/14 09:34:56;;;;;;;7.43;3.30;;;25.40;55.80;;;;;;4972128;28;20202;-77
2023/05/14 09:37:50;;;;;;;5.50;2.88;;;25.90;56.60;;;;;;4973557;28;20212;-72
2023/05/14 09:40:38;;;;;;;4.07;2.83;;;26.10;54.20;;;;;;4971956;28;20190;-72
2023/05/14 09:43:25;;;;;;;4.07;2.88;;;26.30;53.30;;;;;;4972608;28;20212;-73
2023/05/14 09:46:12;;;;;;;5.82;2.65;;;26.20;53.00;;;;;;4973173;28;20210;-73
2023/05/14 09:48:59;;;;;;;5.35;3.13;;;26.40;52.60;;;;;;4973230;28;20205;-75
2023/05/14 09:51:50;;;;;;;5.90;3.28;;;26.80;52.70;;;;;;4971777;28;20201;-74
2023/05/14 09:54:38;;;;;;;4.65;2.80;;;26.80;51.10;;;;;;4982482;28;20225;-72
2023/05/14 09:57:25;;;;;;;4.40;2.90;;;26.50;51.90;;;;;;4992165;28;20205;-73
2023/05/14 10:00:14;;;;;;;5.35;2.83;;;26.80;53.30;;;;;;4992752;28;20662;-72
2023/05/14 10:03:05;;;;;;;3.42;2.72;;;27.10;51.80;;;;;;4992936;28;20212;-75
2023/05/14 10:05:55;;;;;;;5.60;3.20;;;26.80;51.20;;;;;;4992939;28;20193;-74
2023/05/14 10:08:48;;;;;;;4.60;3.00;;;26.50;52.00;;;;;;4992345;28;20205;-73
2023/05/14 10:11:37;;;;;;;4.97;3.28;;;26.20;51.20;;;;;;4993895;28;20204;-73
2023/05/14 10:14:54;;;;;;;3.95;3.17;;;26.00;50.80;;;;;;4992335;28;20201;-78
2023/05/14 10:17:46;;;;;;;5.00;3.17;;;26.20;50.90;;;;;;4950708;29;20202;-74
2023/05/14 10:20:34;;;;;;;4.97;3.08;;;26.50;51.50;;;;;;4949541;29;20226;-75
2023/05/14 10:23:22;;;;;;;7.93;3.30;;;27.00;51.10;;;;;;4949309;29;20209;-76
2023/05/14 10:26:09;;;;;;;4.57;2.92;;;27.00;49.70;;;;;;4949983;29;20202;-81
2023/05/14 10:28:58;;;;;;;4.47;2.97;;;26.80;50.60;;;;;;4950331;29;20203;-74
2023/05/14 10:31:45;;;;;;;5.75;3.28;;;26.60;50.40;;;;;;4950845;28;20205;-74
2023/05/14 10:34:41;;;;;;;3.97;2.90;;;26.50;51.30;;;;;;4950828;28;20207;-77
2023/05/14 10:37:29;;;;;;;4.72;2.75;;;26.80;52.30;;;;;;4950692;28;20209;-77
2023/05/14 10:40:17;;;;;;;5.82;3.00;;;26.90;51.20;;;;;;4949630;29;20606;-73
2023/05/14 10:43:07;;;;;;;6.10;3.15;;;26.70;50.90;;;;;;4951417;28;20340;-76
2023/05/14 10:45:55;;;;;;;3.70;2.80;;;26.70;51.00;;;;;;4937731;28;20210;-75
2023/05/14 10:48:43;;;;;;;3.92;2.70;;;26.80;51.20;;;;;;4950995;28;20668;-74
2023/05/14 10:51:31;;;;;;;4.00;3.00;;;26.70;51.10;;;;;;4950519;28;20202;-75
2023/05/14 10:54:18;;;;;;;4.93;2.90;;;26.90;50.90;;;;;;4975448;28;20730;-72
2023/05/14 10:57:10;;;;;;;4.45;2.80;;;27.00;49.50;;;;;;4990679;28;20236;-76
2023/05/14 10:59:59;;;;;;;7.45;2.92;;;26.90;49.50;;;;;;4990373;28;20228;-82
2023/05/14 11:02:47;;;;;;;3.30;2.60;;;27.00;49.20;;;;;;4993418;28;20197;-79
2023/05/14 11:05:37;;;;;;;5.38;2.70;;;27.40;49.40;;;;;;4995926;28;20259;-78
2023/05/14 11:08:26;;;;;;;4.90;2.67;;;27.60;47.80;;;;;;5011756;28;20291;-78
2023/05/14 11:11:17;;;;;;;5.40;3.00;;;28.00;48.00;;;;;;5012379;28;20658;-77
2023/05/14 11:14:05;;;;;;;3.63;2.60;;;28.00;47.30;;;;;;5011459;28;20277;-72
2023/05/14 11:16:56;;;;;;;7.25;2.80;;;27.90;46.80;;;;;;5008502;28;20196;-75
2023/05/14 11:19:44;;;;;;;3.40;2.45;;;28.10;47.30;;;;;;5010079;28;20228;-75
2023/05/14 11:22:36;;;;;;;3.83;2.70;;;28.40;47.60;;;;;;5009439;28;20611;-78
2023/05/14 11:25:24;;;;;;;5.35;2.80;;;28.30;46.10;;;;;;5010190;28;20208;-74
2023/05/14 11:28:12;;;;;;;3.42;2.53;;;28.50;45.70;;;;;;5008562;28;20204;-72
2023/05/14 11:30:59;;;;;;;6.15;2.35;;;28.90;45.50;;;;;;4994999;28;20208;-75
2023/05/14 11:33:47;;;;;;;2.95;2.40;;;28.90;46.00;;;;;;5008895;28;20195;-75
2023/05/14 11:36:35;;;;;;;2.53;2.10;;;29.10;45.20;;;;;;5010757;28;20207;-78
2023/05/14 11:39:22;;;;;;;3.83;2.22;;;29.10;44.80;;;;;;4996707;28;20228;-83
2023/05/14 11:42:11;;;;;;;6.68;2.40;;;29.10;45.60;;;;;;5008568;28;20664;-81
2023/05/14 11:44:58;;;;;;;4.03;2.50;;;29.50;44.90;;;;;;5009620;28;20645;-79
2023/05/14 11:47:45;;;;;;;5.32;2.50;;;29.70;43.70;;;;;;5010921;28;20671;-81
2023/05/14 11:50:35;;;;;;;4.85;2.60;;;29.60;44.90;;;;;;5010711;28;20207;-73
2023/05/14 11:53:28;;;;;;;4.78;2.50;;;29.40;44.30;;;;;;5012435;28;20264;-81
2023/05/14 11:56:15;;;;;;;3.08;2.42;;;29.30;44.30;;;;;;5013350;28;20745;-83
2023/05/14 11:59:02;;;;;;;4.57;2.38;;;29.20;44.40;;;;;;5009583;28;20228;-77
2023/05/14 12:01:51;;;;;;;3.88;2.47;;;29.10;45.00;;;;;;5009059;28;20216;-78
2023/05/14 12:04:41;;;;;;;3.63;2.78;;;29.60;44.60;;;;;;5009415;28;20200;-79
2023/05/14 12:07:29;;;;;;;5.60;2.63;;;29.70;44.80;;;;;;5009570;28;20264;-88
2023/05/14 12:10:19;;;;;;;3.25;2.65;;;29.30;45.30;;;;;;5010717;28;20199;-84
2023/05/14 12:13:06;;;;;;;3.90;2.88;;;29.50;45.00;;;;;;5019069;28;20206;-90
2023/05/14 12:15:59;;;;;;;3.45;2.42;;;29.80;45.20;;;;;;5012021;28;20207;-91
2023/05/14 12:18:47;;;;;;;4.60;2.50;;;30.20;44.10;;;;;;5015709;28;20200;-91
2023/05/14 12:21:35;;;;;;;4.25;2.38;;;29.90;43.60;;;;;;5008764;28;20191;-83
2023/05/14 12:24:24;;;;;;;3.20;2.50;;;29.80;43.80;;;;;;5029409;28;20207;-90
2023/05/14 12:27:11;;;;;;;3.90;2.40;;;30.20;43.80;;;;;;5009231;28;20196;-85
2023/05/14 12:30:01;;;;;;;4.15;2.45;;;30.30;44.10;;;;;;5021742;28;20242;-89
2023/05/14 12:33:07;;;;;;;5.78;2.60;;;30.50;43.60;;;;;;5014068;28;20337;-88
2023/05/14 12:36:00;;;;;;;4.43;2.50;;;30.70;45.10;;;;;;5013188;28;20204;-88
2023/05/14 12:39:06;;;;;;;3.47;2.60;;;31.10;44.90;;;;;;5012028;28;20857;-85
2023/05/14 12:41:53;;;;;;;2.75;2.38;;;31.30;42.90;;;;;;5017160;28;20204;-86
2023/05/14 12:44:41;;;;;;;6.72;2.90;;;30.90;42.70;;;;;;5013411;28;20196;-87
2023/05/14 12:47:28;;;;;;;2.83;2.28;;;30.90;43.30;;;;;;5000833;28;20204;-80
2023/05/14 12:50:15;;;;;;;4.05;2.20;;;30.90;41.70;;;;;;5000500;28;20204;-85
2023/05/14 12:53:03;;;;;;;3.97;2.65;;;30.50;43.30;;;;;;5013014;28;20644;-85
2023/05/14 12:55:50;;;;;;;3.38;2.50;;;30.70;43.00;;;;;;5016744;28;20833;-88
2023/05/14 12:58:38;;;;;;;3.72;2.63;;;30.80;43.50;;;;;;5016991;28;20524;-83
2023/05/14 13:01:25;;;;;;;4.72;2.60;;;31.10;43.00;;;;;;5018357;28;20653;-84
2023/05/14 13:04:12;;;;;;;3.85;2.30;;;31.10;42.70;;;;;;5013187;28;20212;-86
2023/05/14 13:06:59;;;;;;;2.72;2.13;;;30.80;43.30;;;;;;5012667;28;20319;-85
2023/05/14 13:09:47;;;;;;;4.05;2.15;;;30.20;43.00;;;;;;5012776;28;20196;-88
2023/05/14 13:12:34;;;;;;;4.88;2.40;;;29.70;43.80;;;;;;5013664;28;20635;-89
2023/05/14 13:15:21;;;;;;;4.75;2.90;;;29.70;43.80;;;;;;5012784;28;20663;-89
2023/05/14 13:18:09;;;;;;;5.07;2.70;;;29.70;44.40;;;;;;5016589;28;20270;-83
2023/05/14 13:21:03;;;;;;;5.40;2.80;;;29.40;44.30;;;;;;5014377;28;20231;-86
2023/05/14 13:23:53;;;;;;;4.75;2.65;;;28.90;45.20;;;;;;5013420;28;20242;-88
2023/05/14 13:26:40;;;;;;;3.88;2.78;;;28.30;44.90;;;;;;5014385;28;20196;-88
2023/05/14 13:29:28;;;;;;;6.35;2.58;;;27.30;45.90;;;;;;5024826;28;20200;-82
2023/05/14 13:32:15;;;;;;;4.45;2.80;;;27.00;47.70;;;;;;5026323;28;20204;-78
2023/05/14 13:35:03;;;;;;;4.07;2.67;;;26.90;48.00;;;;;;5013706;28;20200;-89
2023/05/14 13:37:51;;;;;;;4.03;2.65;;;27.20;48.60;;;;;;5000968;28;20196;-87
2023/05/14 13:40:38;;;;;;;5.25;2.67;;;28.20;47.90;;;;;;5009030;28;20264;-80
2023/05/14 13:43:25;;;;;;;3.45;2.53;;;28.90;46.70;;;;;;5023850;28;20188;-86
2023/05/14 13:46:12;;;;;;;4.10;2.60;;;29.70;45.60;;;;;;5011395;28;20943;-87
2023/05/14 13:48:59;;;;;;;6.78;2.70;;;30.10;44.60;;;;;;5012178;28;20653;-87
2023/05/14 13:51:47;;;;;;;4.78;2.63;;;30.20;43.00;;;;;;4999087;28;20196;-82
2023/05/14 13:54:34;;;;;;;3.60;2.40;;;30.30;43.20;;;;;;5015689;28;20223;-89
2023/05/14 13:57:21;;;;;;;4.03;2.45;;;30.40;43.20;;;;;;5020739;28;20657;-88
2023/05/14 14:00:09;;;;;;;3.28;2.70;;;31.00;43.40;;;;;;5013678;28;20223;-81
2023/05/14 14:02:57;;;;;;;4.68;2.50;;;31.00;42.70;;;;;;5013914;28;20192;-88
2023/05/14 14:05:44;;;;;;;3.88;2.45;;;31.30;42.80;;;;;;5016040;28;20199;-81
2023/05/14 14:08:31;;;;;;;4.93;2.58;;;31.50;42.30;;;;;;5015296;28;20653;-77
2023/05/14 14:11:23;;;;;;;3.78;2.60;;;31.90;42.50;;;;;;5014353;28;20200;-89
2023/05/14 14:14:12;;;;;;;4.35;2.42;;;31.80;41.90;;;;;;5012804;28;20204;-88
2023/05/14 14:17:00;;;;;;;8.05;2.80;;;31.90;42.10;;;;;;5012860;28;20203;-87
2023/05/14 14:19:47;;;;;;;4.53;2.72;;;32.40;41.90;;;;;;5013625;28;20232;-87
2023/05/14 14:22:36;;;;;;;5.07;2.60;;;32.50;40.80;;;;;;5011927;28;20200;-86
2023/05/14 14:25:23;;;;;;;4.53;2.40;;;32.20;40.90;;;;;;5012137;28;20200;-87
2023/05/14 14:28:12;;;;;;;3.90;2.60;;;31.80;41.80;;;;;;5013804;28;20199;-88
2023/05/14 14:30:59;;;;;;;3.05;2.50;;;32.00;41.60;;;;;;5011369;28;20204;-79